Terminal Aerodrome Forecast
Issued by NWS

Home | Current Version | Previous Version | Graphics & Text | Print | Product List | Glossary On
Versions: 1 2 3 4 5 6 7 8 9 10 11 12 13 14 15
143
FTUS43 KICT 021121
TAFHUT
TAF
KHUT 021121Z 0212/0312 35010KT P6SM BKN025
     FM021300 34010KT P6SM BKN040
     FM021900 34007KT P6SM SCT050
     FM030200 19005KT P6SM SCT250=

USA.gov is the U.S. government's official web portal to all federal, state and local government web resources and services.